<?xml version='1.0' encoding='UTF-8'?><gpx version="1.1" creator="JPX - https://github.com/jenetics/jpx" xmlns="http://www.topografix.com/GPX/1/1"><trk><trkseg><trkpt lat="43.363989713939695" lon="10.821937740629046"><ele>116.00000000000001</ele><time>2026-04-18T09:23:03Z</time></trkpt><trkpt lat="43.36399119210857" lon="10.82204404440328"><ele>116.0</ele><time>2026-04-18T09:23:13Z</time></trkpt><trkpt lat="43.36402455350653" lon="10.822132850260518"><ele>116.00000000000001</ele><time>2026-04-18T09:23:21Z</time></trkpt><trkpt lat="43.36408975747377" lon="10.822185661117388"><ele>116.00000000000001</ele><time>2026-04-18T09:23:27Z</time></trkpt><trkpt lat="43.3641516945782" lon="10.82222184996409"><ele>116.0</ele><time>2026-04-18T09:23:36Z</time></trkpt><trkpt lat="43.364209230533675" lon="10.822271251763905"><ele>116.00000000000001</ele><time>2026-04-18T09:23:46Z</time></trkpt><trkpt lat="43.364260179132785" lon="10.822322582621299"><ele>116.00000000000001</ele><time>2026-04-18T09:23:53.999Z</time></trkpt><trkpt lat="43.36420587091672" lon="10.822372079940319"><ele>116.00000000000001</ele><time>2026-04-18T09:24:05.999Z</time></trkpt><trkpt lat="43.36414445409914" lon="10.822332053575062"><ele>116.0</ele><time>2026-04-18T09:24:12.999Z</time></trkpt><trkpt lat="43.36407965810959" lon="10.822295678275175"><ele>116.00000000000001</ele><time>2026-04-18T09:24:20.999Z</time></trkpt><trkpt lat="43.36401830978774" lon="10.822243461451476"><ele>116.00000000000001</ele><time>2026-04-18T09:24:27.999Z</time></trkpt><trkpt lat="43.36396842952771" lon="10.822178103098897"><ele>116.0</ele><time>2026-04-18T09:24:33.999Z</time></trkpt><trkpt lat="43.36392413889475" lon="10.822105439744368"><ele>116.00000000000001</ele><time>2026-04-18T09:24:40.999Z</time></trkpt><trkpt lat="43.36387017350922" lon="10.822042036269293"><ele>116.00000000000001</ele><time>2026-04-18T09:24:47.999Z</time></trkpt><trkpt lat="43.363803329914894" lon="10.822030321605666"><ele>114.14285714285715</ele><time>2026-04-18T09:24:58Z</time></trkpt><trkpt lat="43.36373936116974" lon="10.82203537281852"><ele>112.28571428571429</ele><time>2026-04-18T09:25:27Z</time></trkpt><trkpt lat="43.363674028587575" lon="10.82203844804917"><ele>110.42857142857143</ele><time>2026-04-18T09:25:41Z</time></trkpt><trkpt lat="43.363602048428135" lon="10.822046871534221"><ele>108.57142857142858</ele><time>2026-04-18T09:25:48Z</time></trkpt><trkpt lat="43.363538082371136" lon="10.822043416483117"><ele>106.71428571428572</ele><time>2026-04-18T09:25:54.999Z</time></trkpt><trkpt lat="43.36347371524728" lon="10.822015346462088"><ele>104.85714285714285</ele><time>2026-04-18T09:26:00.999Z</time></trkpt><trkpt lat="43.36340992935953" lon="10.821978878229734"><ele>103.0</ele><time>2026-04-18T09:26:07.999Z</time></trkpt><trkpt lat="43.363349971520094" lon="10.821931041971679"><ele>102.99999999999999</ele><time>2026-04-18T09:26:13.999Z</time></trkpt><trkpt lat="43.36329617119484" lon="10.821877864798392"><ele>103.0</ele><time>2026-04-18T09:26:19.999Z</time></trkpt><trkpt lat="43.363237842399684" lon="10.82182047899564"><ele>103.0</ele><time>2026-04-18T09:26:31.999Z</time></trkpt><trkpt lat="43.363176442121926" lon="10.821771624089921"><ele>103.0</ele><time>2026-04-18T09:26:38.999Z</time></trkpt><trkpt lat="43.363121864562906" lon="10.821727609665553"><ele>103.0</ele><time>2026-04-18T09:26:45.999Z</time></trkpt><trkpt lat="43.363060633273484" lon="10.821672966748741"><ele>102.99999999999999</ele><time>2026-04-18T09:27:01Z</time></trkpt><trkpt lat="43.36300360679888" lon="10.821630799488432"><ele>103.0</ele><time>2026-04-18T09:27:09Z</time></trkpt><trkpt lat="43.36296072263766" lon="10.821562639830773"><ele>102.57142857142857</ele><time>2026-04-18T09:27:16Z</time></trkpt><trkpt lat="43.36291239815313" lon="10.821506824028418"><ele>102.14285714285714</ele><time>2026-04-18T09:27:22Z</time></trkpt><trkpt lat="43.36284631542946" lon="10.821444613064703"><ele>101.71428571428572</ele><time>2026-04-18T09:27:28Z</time></trkpt><trkpt lat="43.36279162503086" lon="10.82139248556837"><ele>101.28571428571428</ele><time>2026-04-18T09:27:35Z</time></trkpt><trkpt lat="43.36272513613486" lon="10.821369464372149"><ele>100.85714285714286</ele><time>2026-04-18T09:27:41Z</time></trkpt><trkpt lat="43.36265834395484" lon="10.82134542120593"><ele>100.42857142857143</ele><time>2026-04-18T09:27:48Z</time></trkpt><trkpt lat="43.36258967623313" lon="10.821330139827024"><ele>100.0</ele><time>2026-04-18T09:27:54Z</time></trkpt><trkpt lat="43.36251584345009" lon="10.821328928907567"><ele>100.00000000000001</ele><time>2026-04-18T09:28:00.999Z</time></trkpt><trkpt lat="43.36245018987969" lon="10.821319560338683"><ele>100.0</ele><time>2026-04-18T09:28:05.999Z</time></trkpt><trkpt lat="43.36238820861114" lon="10.82130352706338"><ele>100.0</ele><time>2026-04-18T09:28:10.999Z</time></trkpt><trkpt lat="43.362327438250865" lon="10.821278716723311"><ele>100.0</ele><time>2026-04-18T09:28:44.999Z</time></trkpt><trkpt lat="43.3622640842938" lon="10.821262235961823"><ele>100.0</ele><time>2026-04-18T09:28:51.999Z</time></trkpt><trkpt lat="43.36220035307907" lon="10.821245901840069"><ele>100.00000000000001</ele><time>2026-04-18T09:28:58.999Z</time></trkpt><trkpt lat="43.36214965364151" lon="10.821300102691975"><ele>100.0</ele><time>2026-04-18T09:29:06Z</time></trkpt><trkpt lat="43.3621971692928" lon="10.821359153557621"><ele>100.00000000000001</ele><time>2026-04-18T09:29:13Z</time></trkpt><trkpt lat="43.36226390752245" lon="10.821366069197191"><ele>100.0</ele><time>2026-04-18T09:29:21Z</time></trkpt><trkpt lat="43.36233370918197" lon="10.821387369313523"><ele>100.0</ele><time>2026-04-18T09:29:30Z</time></trkpt><trkpt lat="43.36239482475943" lon="10.821408844260475"><ele>100.0</ele><time>2026-04-18T09:29:37Z</time></trkpt><trkpt lat="43.36245642012284" lon="10.821449997628456"><ele>100.0</ele><time>2026-04-18T09:29:47Z</time></trkpt><trkpt lat="43.3625133070943" lon="10.82151684127964"><ele>100.00000000000001</ele><time>2026-04-18T09:29:57Z</time></trkpt><trkpt lat="43.36256935595804" lon="10.821579254067263"><ele>100.0</ele><time>2026-04-18T09:30:06Z</time></trkpt><trkpt lat="43.36262406895574" lon="10.821634363160348"><ele>100.00000000000001</ele><time>2026-04-18T09:30:12.999Z</time></trkpt><trkpt lat="43.36268390516397" lon="10.821680618188232"><ele>100.0</ele><time>2026-04-18T09:30:19.999Z</time></trkpt><trkpt lat="43.36270057259399" lon="10.821766036635431"><ele>100.0</ele><time>2026-04-18T09:30:27.999Z</time></trkpt><trkpt lat="43.36270968294999" lon="10.821859002602489"><ele>100.0</ele><time>2026-04-18T09:30:48.999Z</time></trkpt><trkpt lat="43.36275571468456" lon="10.821919643342364"><ele>100.0</ele><time>2026-04-18T09:30:55.999Z</time></trkpt><trkpt lat="43.362802831819444" lon="10.821988330590802"><ele>100.00000000000001</ele><time>2026-04-18T09:31:03.999Z</time></trkpt><trkpt lat="43.362811110954915" lon="10.822082611564515"><ele>100.0</ele><time>2026-04-18T09:31:12Z</time></trkpt><trkpt lat="43.362777988825535" lon="10.82215949606758"><ele>98.57142857142858</ele><time>2026-04-18T09:31:22Z</time></trkpt><trkpt lat="43.36275424834699" lon="10.822243430527413"><ele>97.14285714285714</ele><time>2026-04-18T09:31:31Z</time></trkpt><trkpt lat="43.3627505397873" lon="10.822333158919507"><ele>95.71428571428572</ele><time>2026-04-18T09:31:43Z</time></trkpt><trkpt lat="43.362750313717285" lon="10.822425296569971"><ele>94.28571428571429</ele><time>2026-04-18T09:32:04Z</time></trkpt><trkpt lat="43.36280479560008" lon="10.82247217898947"><ele>92.85714285714286</ele><time>2026-04-18T09:32:17Z</time></trkpt><trkpt lat="43.36286694256655" lon="10.822493425820975"><ele>91.42857142857143</ele><time>2026-04-18T09:32:35.999Z</time></trkpt><trkpt lat="43.36292768203348" lon="10.822458516702206"><ele>90.0</ele><time>2026-04-18T09:33:11.999Z</time></trkpt><trkpt lat="43.362992913240014" lon="10.82242525800229"><ele>91.85714285714285</ele><time>2026-04-18T09:33:26Z</time></trkpt><trkpt lat="43.36305727930189" lon="10.822407524621976"><ele>93.71428571428572</ele><time>2026-04-18T09:33:36Z</time></trkpt><trkpt lat="43.3631248151462" lon="10.822390822675374"><ele>95.57142857142857</ele><time>2026-04-18T09:33:47Z</time></trkpt><trkpt lat="43.363187512943306" lon="10.822402113326776"><ele>97.42857142857142</ele><time>2026-04-18T09:33:59Z</time></trkpt><trkpt lat="43.36324317810655" lon="10.82244935736039"><ele>99.28571428571428</ele><time>2026-04-18T09:34:07Z</time></trkpt><trkpt lat="43.363302089393045" lon="10.822494142501647"><ele>101.14285714285714</ele><time>2026-04-18T09:34:15Z</time></trkpt><trkpt lat="43.363362619838746" lon="10.822539698120366"><ele>103.0</ele><time>2026-04-18T09:34:23Z</time></trkpt><trkpt lat="43.36342434222461" lon="10.822580547550887"><ele>102.99999999999999</ele><time>2026-04-18T09:34:47.999Z</time></trkpt><trkpt lat="43.36348983701773" lon="10.82258651586944"><ele>103.0</ele><time>2026-04-18T09:34:57.999Z</time></trkpt><trkpt lat="43.36355344718473" lon="10.822587387139524"><ele>103.0</ele><time>2026-04-18T09:35:05.999Z</time></trkpt><trkpt lat="43.363606756333894" lon="10.822538075810833"><ele>103.0</ele><time>2026-04-18T09:35:23Z</time></trkpt><trkpt lat="43.36365954922424" lon="10.822484377550232"><ele>103.0</ele><time>2026-04-18T09:35:35Z</time></trkpt><trkpt lat="43.36371450229195" lon="10.82242739129378"><ele>102.99999999999999</ele><time>2026-04-18T09:35:48Z</time></trkpt><trkpt lat="43.363774001088096" lon="10.822393719422474"><ele>103.0</ele><time>2026-04-18T09:35:57Z</time></trkpt><trkpt lat="43.36384178578059" lon="10.822401316666703"><ele>103.28571428571428</ele><time>2026-04-18T09:36:04Z</time></trkpt><trkpt lat="43.36390898595448" lon="10.822419050842676"><ele>103.57142857142857</ele><time>2026-04-18T09:36:14Z</time></trkpt><trkpt lat="43.36397529446898" lon="10.822438164797312"><ele>103.85714285714286</ele><time>2026-04-18T09:36:27Z</time></trkpt><trkpt lat="43.364039659428386" lon="10.822459975155292"><ele>104.14285714285714</ele><time>2026-04-18T09:36:41.999Z</time></trkpt><trkpt lat="43.36409415353189" lon="10.822507924538288"><ele>104.42857142857143</ele><time>2026-04-18T09:36:49.999Z</time></trkpt><trkpt lat="43.36415033214081" lon="10.82255837225782"><ele>104.71428571428571</ele><time>2026-04-18T09:36:57.999Z</time></trkpt><trkpt lat="43.3641951056454" lon="10.822621082169563"><ele>105.0</ele><time>2026-04-18T09:37:04.999Z</time></trkpt><trkpt lat="43.36424814006884" lon="10.82267280923566"><ele>105.0</ele><time>2026-04-18T09:37:15.999Z</time></trkpt><trkpt lat="43.36429334687417" lon="10.82273628033853"><ele>105.0</ele><time>2026-04-18T09:37:23.999Z</time></trkpt><trkpt lat="43.364335744319604" lon="10.8228088313013"><ele>105.0</ele><time>2026-04-18T09:37:48Z</time></trkpt><trkpt lat="43.36438839673611" lon="10.822874397502181"><ele>105.0</ele><time>2026-04-18T09:37:57Z</time></trkpt><trkpt lat="43.364413773934665" lon="10.822957807912164"><ele>105.0</ele><time>2026-04-18T09:38:04Z</time></trkpt><trkpt lat="43.364437841781466" lon="10.823044382504511"><ele>105.0</ele><time>2026-04-18T09:38:11Z</time></trkpt><trkpt lat="43.36446152015736" lon="10.823137868226718"><ele>105.0</ele><time>2026-04-18T09:38:18Z</time></trkpt><trkpt lat="43.36446390083594" lon="10.823229643591494"><ele>105.0</ele><time>2026-04-18T09:38:26Z</time></trkpt><trkpt lat="43.36446997679353" lon="10.823318940662531"><ele>105.0</ele><time>2026-04-18T09:38:32Z</time></trkpt><trkpt lat="43.36447833070573" lon="10.823409296466153"><ele>105.0</ele><time>2026-04-18T09:38:38Z</time></trkpt><trkpt lat="43.36449160305316" lon="10.823502336700463"><ele>105.0</ele><time>2026-04-18T09:38:45.999Z</time></trkpt><trkpt lat="43.36450728799862" lon="10.82359539902912"><ele>105.0</ele><time>2026-04-18T09:38:55.999Z</time></trkpt><trkpt lat="43.36452545401452" lon="10.823687481329651"><ele>105.0</ele><time>2026-04-18T09:39:03.999Z</time></trkpt><trkpt lat="43.364549799994386" lon="10.823772920279536"><ele>105.0</ele><time>2026-04-18T09:39:08.999Z</time></trkpt><trkpt lat="43.36458447512343" lon="10.82384788616882"><ele>104.28571428571429</ele><time>2026-04-18T09:39:17.999Z</time></trkpt><trkpt lat="43.364627479361076" lon="10.823922083437253"><ele>103.57142857142857</ele><time>2026-04-18T09:39:25.999Z</time></trkpt><trkpt lat="43.36467326666731" lon="10.823987549618588"><ele>102.85714285714286</ele><time>2026-04-18T09:39:34Z</time></trkpt><trkpt lat="43.36471437089111" lon="10.824067702721267"><ele>102.14285714285714</ele><time>2026-04-18T09:39:49Z</time></trkpt><trkpt lat="43.364744855967835" lon="10.824143876280091"><ele>101.42857142857143</ele><time>2026-04-18T09:39:55Z</time></trkpt><trkpt lat="43.36478667349359" lon="10.824212618079967"><ele>100.71428571428572</ele><time>2026-04-18T09:40:01Z</time></trkpt><trkpt lat="43.364839491538596" lon="10.824272087567287"><ele>100.0</ele><time>2026-04-18T09:40:08Z</time></trkpt><trkpt lat="43.364889272803964" lon="10.824337491991901"><ele>101.57142857142858</ele><time>2026-04-18T09:40:14Z</time></trkpt><trkpt lat="43.36493974403015" lon="10.824394047895783"><ele>103.14285714285714</ele><time>2026-04-18T09:40:21Z</time></trkpt><trkpt lat="43.36500001924516" lon="10.824442692160538"><ele>104.71428571428572</ele><time>2026-04-18T09:40:36Z</time></trkpt><trkpt lat="43.36503573414254" lon="10.824517084572738"><ele>106.28571428571429</ele><time>2026-04-18T09:40:44Z</time></trkpt><trkpt lat="43.36502697080317" lon="10.824619416476438"><ele>107.85714285714286</ele><time>2026-04-18T09:40:52.999Z</time></trkpt><trkpt lat="43.36501287128871" lon="10.824706732360388"><ele>109.42857142857143</ele><time>2026-04-18T09:40:59.999Z</time></trkpt><trkpt lat="43.3649867702756" lon="10.824800997142296"><ele>111.0</ele><time>2026-04-18T09:41:06.999Z</time></trkpt><trkpt lat="43.364980687286746" lon="10.824892014972427"><ele>111.0</ele><time>2026-04-18T09:41:35.999Z</time></trkpt><trkpt lat="43.364985396833006" lon="10.824986918322017"><ele>111.0</ele><time>2026-04-18T09:42:26Z</time></trkpt><trkpt lat="43.36498672302779" lon="10.825078995737522"><ele>111.0</ele><time>2026-04-18T09:42:35Z</time></trkpt><trkpt lat="43.3649995917752" lon="10.825172034737053"><ele>111.0</ele><time>2026-04-18T09:42:42Z</time></trkpt><trkpt lat="43.365025256278486" lon="10.825257499234388"><ele>111.0</ele><time>2026-04-18T09:42:49Z</time></trkpt><trkpt lat="43.365062619531194" lon="10.825328098213815"><ele>111.0</ele><time>2026-04-18T09:42:58.999Z</time></trkpt><trkpt lat="43.365125248895865" lon="10.825378275757725"><ele>111.0</ele><time>2026-04-18T09:43:20.999Z</time></trkpt><trkpt lat="43.36518820941005" lon="10.825362884494236"><ele>111.0</ele><time>2026-04-18T09:43:42.999Z</time></trkpt><trkpt lat="43.365266297111845" lon="10.82526287581477"><ele>111.0</ele><time>2026-04-18T09:44:56Z</time></trkpt><trkpt lat="43.365276004882126" lon="10.825164777728185"><ele>111.0</ele><time>2026-04-18T09:45:02.999Z</time></trkpt><trkpt lat="43.36528528434888" lon="10.82506714901383"><ele>111.0</ele><time>2026-04-18T09:45:08.999Z</time></trkpt><trkpt lat="43.36529938400843" lon="10.824980943712397"><ele>111.0</ele><time>2026-04-18T09:45:20.999Z</time></trkpt><trkpt lat="43.36530942289164" lon="10.82489422025785"><ele>111.0</ele><time>2026-04-18T09:46:04Z</time></trkpt><trkpt lat="43.3653168601757" lon="10.824800080869487"><ele>111.0</ele><time>2026-04-18T09:46:11Z</time></trkpt><trkpt lat="43.3653175034976" lon="10.824708402654556"><ele>111.0</ele><time>2026-04-18T09:46:34Z</time></trkpt><trkpt lat="43.36534100051619" lon="10.82462795777104"><ele>111.0</ele><time>2026-04-18T09:47:41.999Z</time></trkpt><trkpt lat="43.36534656506352" lon="10.82453570886653"><ele>111.0</ele><time>2026-04-18T09:47:50.999Z</time></trkpt><trkpt lat="43.36533548187271" lon="10.824449688743682"><ele>111.0</ele><time>2026-04-18T09:47:58Z</time></trkpt><trkpt lat="43.36531162516292" lon="10.824357286675129"><ele>111.0</ele><time>2026-04-18T09:48:05Z</time></trkpt><trkpt lat="43.365274482254954" lon="10.824279148121017"><ele>111.0</ele><time>2026-04-18T09:48:13Z</time></trkpt><trkpt lat="43.36525243845696" lon="10.824197881693363"><ele>111.0</ele><time>2026-04-18T09:48:21Z</time></trkpt><trkpt lat="43.36521192755753" lon="10.82412592082733"><ele>111.28571428571428</ele><time>2026-04-18T09:48:43Z</time></trkpt><trkpt lat="43.36516144351023" lon="10.824072481362311"><ele>111.57142857142858</ele><time>2026-04-18T09:48:50Z</time></trkpt><trkpt lat="43.36511325721901" lon="10.824013008203364"><ele>111.85714285714286</ele><time>2026-04-18T09:48:57Z</time></trkpt><trkpt lat="43.3650639134604" lon="10.823943659486154"><ele>112.14285714285714</ele><time>2026-04-18T09:49:05Z</time></trkpt><trkpt lat="43.36499348437628" lon="10.823902688834751"><ele>112.42857142857142</ele><time>2026-04-18T09:49:12.999Z</time></trkpt><trkpt lat="43.36494610672666" lon="10.823830003351171"><ele>112.71428571428572</ele><time>2026-04-18T09:49:19.999Z</time></trkpt><trkpt lat="43.36489205722157" lon="10.823768941545183"><ele>113.0</ele><time>2026-04-18T09:49:28.999Z</time></trkpt><trkpt lat="43.36484647380513" lon="10.823703196543878"><ele>113.0</ele><time>2026-04-18T09:49:35.999Z</time></trkpt><trkpt lat="43.36480404202788" lon="10.823635042874844"><ele>113.0</ele><time>2026-04-18T09:49:42.999Z</time></trkpt><trkpt lat="43.36474950864086" lon="10.823583178975705"><ele>113.0</ele><time>2026-04-18T09:49:50.999Z</time></trkpt><trkpt lat="43.36470030146536" lon="10.823512217753212"><ele>113.0</ele><time>2026-04-18T09:50:08Z</time></trkpt><trkpt lat="43.36466625210449" lon="10.823428590562637"><ele>113.0</ele><time>2026-04-18T09:50:16Z</time></trkpt><trkpt lat="43.36464059710309" lon="10.823345586928653"><ele>113.0</ele><time>2026-04-18T09:50:23Z</time></trkpt><trkpt lat="43.364599821337315" lon="10.82327782789459"><ele>113.0</ele><time>2026-04-18T09:50:53Z</time></trkpt><trkpt lat="43.3646467386213" lon="10.82318742807229"><ele>113.85714285714286</ele><time>2026-04-18T09:51:50.999Z</time></trkpt><trkpt lat="43.36468542631901" lon="10.82311019015182"><ele>114.71428571428571</ele><time>2026-04-18T09:52:13Z</time></trkpt><trkpt lat="43.364729165634785" lon="10.823045333991251"><ele>115.57142857142857</ele><time>2026-04-18T09:52:20Z</time></trkpt><trkpt lat="43.36478960573249" lon="10.82301994129182"><ele>116.42857142857143</ele><time>2026-04-18T09:52:26Z</time></trkpt><trkpt lat="43.36486129256576" lon="10.82303987127485"><ele>117.28571428571428</ele><time>2026-04-18T09:52:33Z</time></trkpt><trkpt lat="43.36491631281086" lon="10.823105127359216"><ele>118.14285714285714</ele><time>2026-04-18T09:52:42Z</time></trkpt><trkpt lat="43.36496807047322" lon="10.823168059918348"><ele>119.0</ele><time>2026-04-18T09:52:48Z</time></trkpt><trkpt lat="43.36500169852399" lon="10.823250943744915"><ele>119.0</ele><time>2026-04-18T09:52:55Z</time></trkpt><trkpt lat="43.3650366672122" lon="10.823325837477547"><ele>119.0</ele><time>2026-04-18T09:53:03Z</time></trkpt><trkpt lat="43.36507079581261" lon="10.82339949560174"><ele>119.0</ele><time>2026-04-18T09:53:17Z</time></trkpt><trkpt lat="43.3650852085154" lon="10.823488271375934"><ele>119.0</ele><time>2026-04-18T09:53:29.999Z</time></trkpt><trkpt lat="43.36511363732336" lon="10.823571476045633"><ele>119.0</ele><time>2026-04-18T09:54:26Z</time></trkpt><trkpt lat="43.36514645155571" lon="10.823656329435448"><ele>119.0</ele><time>2026-04-18T09:54:34Z</time></trkpt><trkpt lat="43.36516783954295" lon="10.823739456541306"><ele>119.0</ele><time>2026-04-18T09:54:43Z</time></trkpt><trkpt lat="43.36519187075475" lon="10.823825975428107"><ele>118.14285714285714</ele><time>2026-04-18T09:54:49Z</time></trkpt><trkpt lat="43.365224387037145" lon="10.823907933334862"><ele>117.28571428571428</ele><time>2026-04-18T09:54:57Z</time></trkpt><trkpt lat="43.36526495611568" lon="10.823988074868218"><ele>116.42857142857143</ele><time>2026-04-18T09:55:04Z</time></trkpt><trkpt lat="43.36531186908751" lon="10.824061296246562"><ele>115.57142857142857</ele><time>2026-04-18T09:55:11Z</time></trkpt><trkpt lat="43.36535491582947" lon="10.824125566295097"><ele>114.71428571428571</ele><time>2026-04-18T09:55:18Z</time></trkpt><trkpt lat="43.36538178762138" lon="10.824207295649305"><ele>113.85714285714286</ele><time>2026-04-18T09:55:26Z</time></trkpt><trkpt lat="43.36542560778394" lon="10.82428096932845"><ele>113.0</ele><time>2026-04-18T09:55:42.999Z</time></trkpt><trkpt lat="43.365442874440944" lon="10.82436891605876"><ele>112.71428571428572</ele><time>2026-04-18T09:56:05.999Z</time></trkpt><trkpt lat="43.365463914009304" lon="10.824464675206004"><ele>112.42857142857142</ele><time>2026-04-18T09:56:12.999Z</time></trkpt><trkpt lat="43.36546858618611" lon="10.824552705104537"><ele>112.14285714285714</ele><time>2026-04-18T09:56:20.999Z</time></trkpt><trkpt lat="43.365472509194475" lon="10.824649253296004"><ele>111.85714285714286</ele><time>2026-04-18T09:56:27Z</time></trkpt><trkpt lat="43.36545925968292" lon="10.824748435871621"><ele>111.57142857142858</ele><time>2026-04-18T09:56:34Z</time></trkpt><trkpt lat="43.36545017184268" lon="10.82484339548757"><ele>111.28571428571428</ele><time>2026-04-18T09:56:40Z</time></trkpt><trkpt lat="43.36543193247923" lon="10.824932984733895"><ele>111.0</ele><time>2026-04-18T09:56:46Z</time></trkpt><trkpt lat="43.36541735038872" lon="10.825018868648051"><ele>111.0</ele><time>2026-04-18T09:56:53Z</time></trkpt><trkpt lat="43.36540434963155" lon="10.825105940832175"><ele>111.0</ele><time>2026-04-18T09:57:11Z</time></trkpt><trkpt lat="43.36537594823195" lon="10.825191017121215"><ele>111.0</ele><time>2026-04-18T09:57:18Z</time></trkpt><trkpt lat="43.365355543460375" lon="10.825274872729652"><ele>111.0</ele><time>2026-04-18T09:57:25Z</time></trkpt><trkpt lat="43.365329245595674" lon="10.825359668634178"><ele>111.0</ele><time>2026-04-18T09:57:31Z</time></trkpt><trkpt lat="43.36527983033872" lon="10.825432028090523"><ele>111.0</ele><time>2026-04-18T09:57:45.999Z</time></trkpt><trkpt lat="43.36524745985881" lon="10.82551041421392"><ele>111.0</ele><time>2026-04-18T09:58:09.999Z</time></trkpt><trkpt lat="43.36521326703429" lon="10.825584270731158"><ele>110.85714285714285</ele><time>2026-04-18T09:58:16.999Z</time></trkpt><trkpt lat="43.36518032392856" lon="10.825660325397319"><ele>110.71428571428572</ele><time>2026-04-18T09:58:22.999Z</time></trkpt><trkpt lat="43.365170250659496" lon="10.825757528118391"><ele>110.57142857142857</ele><time>2026-04-18T09:58:31Z</time></trkpt><trkpt lat="43.365174555389046" lon="10.825851500506383"><ele>110.42857142857142</ele><time>2026-04-18T09:58:37Z</time></trkpt><trkpt lat="43.365192615207974" lon="10.825943725012634"><ele>110.28571428571428</ele><time>2026-04-18T09:58:45Z</time></trkpt><trkpt lat="43.36523274684159" lon="10.826023792878301"><ele>110.14285714285714</ele><time>2026-04-18T09:58:51Z</time></trkpt><trkpt lat="43.36529033824989" lon="10.826084952845413"><ele>110.0</ele><time>2026-04-18T09:58:58Z</time></trkpt><trkpt lat="43.365340914703935" lon="10.82614878790631"><ele>110.28571428571428</ele><time>2026-04-18T09:59:10Z</time></trkpt><trkpt lat="43.36537848118799" lon="10.826219973531451"><ele>110.57142857142857</ele><time>2026-04-18T09:59:16Z</time></trkpt><trkpt lat="43.36540716933698" lon="10.826298265937886"><ele>110.85714285714286</ele><time>2026-04-18T09:59:22Z</time></trkpt><trkpt lat="43.3654296121027" lon="10.826394023626941"><ele>111.14285714285714</ele><time>2026-04-18T09:59:29Z</time></trkpt><trkpt lat="43.365436279477194" lon="10.826486187921038"><ele>111.42857142857143</ele><time>2026-04-18T09:59:34Z</time></trkpt><trkpt lat="43.36544618224291" lon="10.826586997688441"><ele>111.71428571428571</ele><time>2026-04-18T09:59:39.999Z</time></trkpt><trkpt lat="43.365452800762164" lon="10.826679535757401"><ele>112.0</ele><time>2026-04-18T09:59:45.999Z</time></trkpt><trkpt lat="43.3654690714649" lon="10.826765635105092"><ele>112.42857142857143</ele><time>2026-04-18T09:59:51.999Z</time></trkpt><trkpt lat="43.36550437166737" lon="10.826844028401585"><ele>112.85714285714286</ele><time>2026-04-18T10:00:00.999Z</time></trkpt><trkpt lat="43.36556861098434" lon="10.826872511392938"><ele>113.28571428571428</ele><time>2026-04-18T10:00:08.999Z</time></trkpt><trkpt lat="43.36562992456171" lon="10.826839021013171"><ele>113.71428571428571</ele><time>2026-04-18T10:00:15.999Z</time></trkpt><trkpt lat="43.36566453032594" lon="10.826764986701107"><ele>114.14285714285714</ele><time>2026-04-18T10:00:22.999Z</time></trkpt><trkpt lat="43.365696953937785" lon="10.826686606782216"><ele>114.57142857142856</ele><time>2026-04-18T10:00:41Z</time></trkpt><trkpt lat="43.36567145180866" lon="10.826600254251662"><ele>114.99999999999999</ele><time>2026-04-18T10:01:05Z</time></trkpt><trkpt lat="43.365647352526125" lon="10.826515645605507"><ele>114.57142857142856</ele><time>2026-04-18T10:01:15Z</time></trkpt><trkpt lat="43.36561645435748" lon="10.826434557758553"><ele>114.14285714285714</ele><time>2026-04-18T10:01:31Z</time></trkpt><trkpt lat="43.365585584699836" lon="10.82634382238286"><ele>113.71428571428571</ele><time>2026-04-18T10:01:38Z</time></trkpt><trkpt lat="43.365549479872776" lon="10.82626771771432"><ele>113.28571428571428</ele><time>2026-04-18T10:01:43.999Z</time></trkpt><trkpt lat="43.36551201461182" lon="10.82619086382088"><ele>112.85714285714286</ele><time>2026-04-18T10:01:49.999Z</time></trkpt><trkpt lat="43.36547255233471" lon="10.826112283213252"><ele>112.42857142857143</ele><time>2026-04-18T10:01:55.999Z</time></trkpt><trkpt lat="43.36542956158371" lon="10.826040568318692"><ele>112.0</ele><time>2026-04-18T10:02:01.999Z</time></trkpt><trkpt lat="43.365384589923835" lon="10.82596830592318"><ele>111.71428571428571</ele><time>2026-04-18T10:02:08.999Z</time></trkpt><trkpt lat="43.3653596319982" lon="10.825877300597625"><ele>111.42857142857143</ele><time>2026-04-18T10:02:15.999Z</time></trkpt><trkpt lat="43.36534703411307" lon="10.825788606626642"><ele>111.14285714285714</ele><time>2026-04-18T10:02:22.999Z</time></trkpt><trkpt lat="43.365371163441814" lon="10.825703679141615"><ele>110.85714285714286</ele><time>2026-04-18T10:02:29.999Z</time></trkpt><trkpt lat="43.3654236279825" lon="10.825645510393338"><ele>110.57142857142857</ele><time>2026-04-18T10:02:36.999Z</time></trkpt><trkpt lat="43.36548821310375" lon="10.825610930573184"><ele>110.28571428571428</ele><time>2026-04-18T10:02:46Z</time></trkpt><trkpt lat="43.36554846566584" lon="10.825571151730628"><ele>110.0</ele><time>2026-04-18T10:02:55Z</time></trkpt><trkpt lat="43.36560727674834" lon="10.825531808407963"><ele>112.28571428571428</ele><time>2026-04-18T10:03:05Z</time></trkpt><trkpt lat="43.36567019292635" lon="10.825491438875492"><ele>114.57142857142857</ele><time>2026-04-18T10:03:33Z</time></trkpt><trkpt lat="43.365735691798534" lon="10.825489016137821"><ele>116.85714285714286</ele><time>2026-04-18T10:03:42Z</time></trkpt><trkpt lat="43.36575642207297" lon="10.825571387844178"><ele>119.14285714285714</ele><time>2026-04-18T10:03:50.999Z</time></trkpt><trkpt lat="43.365709478409286" lon="10.825636593705784"><ele>121.42857142857143</ele><time>2026-04-18T10:04:08.999Z</time></trkpt><trkpt lat="43.36565093249224" lon="10.825683203083686"><ele>123.71428571428571</ele><time>2026-04-18T10:04:16.999Z</time></trkpt><trkpt lat="43.3656065076365" lon="10.82575342824555"><ele>126.0</ele><time>2026-04-18T10:04:24.999Z</time></trkpt><trkpt lat="43.36556244517252" lon="10.82583313961861"><ele>126.0</ele><time>2026-04-18T10:04:32.999Z</time></trkpt><trkpt lat="43.36553158438675" lon="10.825920649289879"><ele>126.0</ele><time>2026-04-18T10:04:42.999Z</time></trkpt><trkpt lat="43.36552089471373" lon="10.82600908238446"><ele>126.0</ele><time>2026-04-18T10:04:51Z</time></trkpt><trkpt lat="43.36554358420145" lon="10.826094387380095"><ele>126.0</ele><time>2026-04-18T10:04:57Z</time></trkpt><trkpt lat="43.365585113286606" lon="10.826165897944588"><ele>126.0</ele><time>2026-04-18T10:05:04Z</time></trkpt><trkpt lat="43.36562953725198" lon="10.82624194623448"><ele>126.0</ele><time>2026-04-18T10:05:11Z</time></trkpt><trkpt lat="43.3656770816397" lon="10.826308298949936"><ele>126.0</ele><time>2026-04-18T10:05:17Z</time></trkpt><trkpt lat="43.36574108886075" lon="10.826351686646566"><ele>125.28571428571428</ele><time>2026-04-18T10:05:24Z</time></trkpt><trkpt lat="43.36581074426264" lon="10.826374393167873"><ele>124.57142857142857</ele><time>2026-04-18T10:05:32Z</time></trkpt><trkpt lat="43.3658743663511" lon="10.826383691804859"><ele>123.85714285714286</ele><time>2026-04-18T10:05:38Z</time></trkpt><trkpt lat="43.36592788334302" lon="10.826431717450594"><ele>123.14285714285714</ele><time>2026-04-18T10:05:44Z</time></trkpt><trkpt lat="43.365988966073" lon="10.826479858671195"><ele>122.42857142857142</ele><time>2026-04-18T10:05:51Z</time></trkpt><trkpt lat="43.366050546894826" lon="10.826537978092015"><ele>121.71428571428571</ele><time>2026-04-18T10:06:00Z</time></trkpt><trkpt lat="43.36609353440272" lon="10.826608041038876"><ele>121.0</ele><time>2026-04-18T10:06:07.999Z</time></trkpt><trkpt lat="43.36607715206585" lon="10.826694613649002"><ele>121.0</ele><time>2026-04-18T10:06:20.999Z</time></trkpt><trkpt lat="43.3660138458742" lon="10.826730251860045"><ele>120.99999999999999</ele><time>2026-04-18T10:06:29.999Z</time></trkpt><trkpt lat="43.36594234448393" lon="10.82672441527714"><ele>121.0</ele><time>2026-04-18T10:06:36.999Z</time></trkpt><trkpt lat="43.36587845679879" lon="10.826720216293024"><ele>121.0</ele><time>2026-04-18T10:06:44.999Z</time></trkpt><trkpt lat="43.36581310973478" lon="10.826753749859435"><ele>120.99999999999999</ele><time>2026-04-18T10:06:54Z</time></trkpt><trkpt lat="43.36577410591509" lon="10.826832007555165"><ele>121.0</ele><time>2026-04-18T10:07:01Z</time></trkpt><trkpt lat="43.365746580220765" lon="10.82691979768269"><ele>121.0</ele><time>2026-04-18T10:07:20Z</time></trkpt><trkpt lat="43.365727768125815" lon="10.827007267477391"><ele>120.57142857142857</ele><time>2026-04-18T10:07:40Z</time></trkpt><trkpt lat="43.3657449363069" lon="10.827101855210188"><ele>120.14285714285714</ele><time>2026-04-18T10:07:48Z</time></trkpt><trkpt lat="43.36578118126813" lon="10.827173053030117"><ele>119.71428571428571</ele><time>2026-04-18T10:07:59Z</time></trkpt><trkpt lat="43.36584978671477" lon="10.827206084785"><ele>119.28571428571428</ele><time>2026-04-18T10:08:07.999Z</time></trkpt><trkpt lat="43.36591785028988" lon="10.827206450187232"><ele>118.85714285714286</ele><time>2026-04-18T10:08:16.999Z</time></trkpt><trkpt lat="43.36597034426713" lon="10.827137321816227"><ele>118.42857142857142</ele><time>2026-04-18T10:08:23.999Z</time></trkpt><trkpt lat="43.36599295895378" lon="10.827053945073555"><ele>118.0</ele><time>2026-04-18T10:08:33.999Z</time></trkpt><trkpt lat="43.36603288405682" lon="10.826980019828929"><ele>118.0</ele><time>2026-04-18T10:08:41.999Z</time></trkpt><trkpt lat="43.366096378380675" lon="10.826950443113708"><ele>118.0</ele><time>2026-04-18T10:08:52.999Z</time></trkpt><trkpt lat="43.36615133341291" lon="10.82700355193885"><ele>118.0</ele><time>2026-04-18T10:09:02Z</time></trkpt><trkpt lat="43.366188356847935" lon="10.827075783243446"><ele>118.0</ele><time>2026-04-18T10:09:08Z</time></trkpt><trkpt lat="43.366201762162596" lon="10.827166945274671"><ele>118.0</ele><time>2026-04-18T10:09:16Z</time></trkpt><trkpt lat="43.36620854767838" lon="10.827260408313764"><ele>118.0</ele><time>2026-04-18T10:09:26Z</time></trkpt><trkpt lat="43.36619324629222" lon="10.827350134278568"><ele>118.0</ele><time>2026-04-18T10:09:34Z</time></trkpt><trkpt lat="43.366186437800245" lon="10.827458478431312"><ele>118.0</ele><time>2026-04-18T10:09:46Z</time></trkpt><trkpt lat="43.36615120343806" lon="10.827531718647789"><ele>118.0</ele><time>2026-04-18T10:09:53Z</time></trkpt><trkpt lat="43.3661089059976" lon="10.8276081095315"><ele>118.0</ele><time>2026-04-18T10:10:01Z</time></trkpt><trkpt lat="43.36604081224925" lon="10.827608068544267"><ele>118.0</ele><time>2026-04-18T10:10:11Z</time></trkpt><trkpt lat="43.36599690024746" lon="10.827542923084486"><ele>118.0</ele><time>2026-04-18T10:10:18.999Z</time></trkpt><trkpt lat="43.36594992519196" lon="10.827480731922599"><ele>118.0</ele><time>2026-04-18T10:10:25.999Z</time></trkpt><trkpt lat="43.36589763317193" lon="10.827409964087192"><ele>118.0</ele><time>2026-04-18T10:10:32.999Z</time></trkpt><trkpt lat="43.36583098642224" lon="10.827401886072131"><ele>118.0</ele><time>2026-04-18T10:10:38.999Z</time></trkpt><trkpt lat="43.36580526013369" lon="10.827484199743319"><ele>118.0</ele><time>2026-04-18T10:10:48.999Z</time></trkpt><trkpt lat="43.365819156320796" lon="10.827575180790395"><ele>118.0</ele><time>2026-04-18T10:10:56.999Z</time></trkpt><trkpt lat="43.365857216050685" lon="10.827649748258468"><ele>118.0</ele><time>2026-04-18T10:11:04Z</time></trkpt><trkpt lat="43.365892488057405" lon="10.82773197967998"><ele>118.0</ele><time>2026-04-18T10:11:11Z</time></trkpt><trkpt lat="43.365956009097715" lon="10.827782905718287"><ele>118.0</ele><time>2026-04-18T10:11:18Z</time></trkpt><trkpt lat="43.36601099596123" lon="10.827848251429414"><ele>118.0</ele><time>2026-04-18T10:11:27Z</time></trkpt><trkpt lat="43.36606793293222" lon="10.827891365360843"><ele>118.14285714285714</ele><time>2026-04-18T10:11:35Z</time></trkpt><trkpt lat="43.36613501525067" lon="10.827893853104838"><ele>118.28571428571429</ele><time>2026-04-18T10:11:48Z</time></trkpt><trkpt lat="43.366201000173575" lon="10.827929442755392"><ele>118.42857142857143</ele><time>2026-04-18T10:11:55Z</time></trkpt><trkpt lat="43.366258267554464" lon="10.82796739706607"><ele>118.57142857142857</ele><time>2026-04-18T10:12:03Z</time></trkpt><trkpt lat="43.36630059141035" lon="10.82803950380809"><ele>118.71428571428572</ele><time>2026-04-18T10:12:12Z</time></trkpt><trkpt lat="43.36633934456509" lon="10.828115118064"><ele>118.85714285714286</ele><time>2026-04-18T10:12:19.999Z</time></trkpt><trkpt lat="43.366369328866405" lon="10.828191429890625"><ele>119.0</ele><time>2026-04-18T10:12:32.999Z</time></trkpt><trkpt lat="43.36641675547019" lon="10.828263621897117"><ele>119.71428571428572</ele><time>2026-04-18T10:12:41.999Z</time></trkpt><trkpt lat="43.3664784479653" lon="10.828289352090714"><ele>120.42857142857143</ele><time>2026-04-18T10:12:49.999Z</time></trkpt><trkpt lat="43.366535772604294" lon="10.828243039764745"><ele>121.14285714285714</ele><time>2026-04-18T10:12:59.999Z</time></trkpt><trkpt lat="43.366547686029186" lon="10.828107708261697"><ele>121.85714285714286</ele><time>2026-04-18T10:13:43Z</time></trkpt><trkpt lat="43.36655413356168" lon="10.828019798200334"><ele>122.57142857142858</ele><time>2026-04-18T10:13:50Z</time></trkpt><trkpt lat="43.36651803148992" lon="10.827940574071782"><ele>123.28571428571429</ele><time>2026-04-18T10:14:01Z</time></trkpt><trkpt lat="43.36645501478605" lon="10.82790389934163"><ele>124.0</ele><time>2026-04-18T10:14:15Z</time></trkpt><trkpt lat="43.3663915164733" lon="10.827854275274209"><ele>123.28571428571429</ele><time>2026-04-18T10:14:21.999Z</time></trkpt><trkpt lat="43.36633310076822" lon="10.827807695606287"><ele>122.57142857142858</ele><time>2026-04-18T10:14:29.999Z</time></trkpt><trkpt lat="43.366289281952945" lon="10.827742688185285"><ele>121.85714285714286</ele><time>2026-04-18T10:14:38.999Z</time></trkpt><trkpt lat="43.36626552473386" lon="10.827657170558446"><ele>121.14285714285714</ele><time>2026-04-18T10:14:48.999Z</time></trkpt><trkpt lat="43.366269502774934" lon="10.82756134067179"><ele>120.42857142857143</ele><time>2026-04-18T10:14:55.999Z</time></trkpt><trkpt lat="43.36628537731561" lon="10.8274723814983"><ele>119.71428571428572</ele><time>2026-04-18T10:15:02.999Z</time></trkpt><trkpt lat="43.366325773392866" lon="10.827401497881192"><ele>119.0</ele><time>2026-04-18T10:15:11.999Z</time></trkpt><trkpt lat="43.36635190857024" lon="10.827307640350536"><ele>118.85714285714286</ele><time>2026-04-18T10:15:19Z</time></trkpt><trkpt lat="43.36632974734398" lon="10.827218944720729"><ele>118.71428571428572</ele><time>2026-04-18T10:15:26Z</time></trkpt><trkpt lat="43.36631558875546" lon="10.827119623481677"><ele>118.57142857142857</ele><time>2026-04-18T10:15:35Z</time></trkpt><trkpt lat="43.36635692743215" lon="10.827044641666323"><ele>118.42857142857143</ele><time>2026-04-18T10:15:47Z</time></trkpt><trkpt lat="43.3664050193217" lon="10.827115774802392"><ele>118.28571428571429</ele><time>2026-04-18T10:15:55Z</time></trkpt><trkpt lat="43.366440270794094" lon="10.827195585040368"><ele>118.14285714285714</ele><time>2026-04-18T10:16:02Z</time></trkpt><trkpt lat="43.366452464237874" lon="10.827289973403948"><ele>118.0</ele><time>2026-04-18T10:16:09Z</time></trkpt><trkpt lat="43.36646331177182" lon="10.827385566482628"><ele>118.85714285714286</ele><time>2026-04-18T10:16:15Z</time></trkpt><trkpt lat="43.36649066246354" lon="10.827473463764777"><ele>119.71428571428572</ele><time>2026-04-18T10:16:21Z</time></trkpt><trkpt lat="43.36649144936172" lon="10.82756618519033"><ele>120.57142857142858</ele><time>2026-04-18T10:16:27Z</time></trkpt><trkpt lat="43.36649743592856" lon="10.827666411208366"><ele>121.42857142857143</ele><time>2026-04-18T10:16:32.999Z</time></trkpt><trkpt lat="43.366517742305106" lon="10.827758286689894"><ele>122.2857142857143</ele><time>2026-04-18T10:16:39.999Z</time></trkpt><trkpt lat="43.366563249619155" lon="10.827819966714106"><ele>123.14285714285715</ele><time>2026-04-18T10:16:46.999Z</time></trkpt><trkpt lat="43.36662601048185" lon="10.827838214797614"><ele>124.0</ele><time>2026-04-18T10:16:56.999Z</time></trkpt><trkpt lat="43.36668448010548" lon="10.827787574646544"><ele>124.0</ele><time>2026-04-18T10:17:04.999Z</time></trkpt><trkpt lat="43.36671921774205" lon="10.827708923780484"><ele>124.00000000000001</ele><time>2026-04-18T10:17:10.999Z</time></trkpt><trkpt lat="43.36675043270297" lon="10.827626582176475"><ele>124.0</ele><time>2026-04-18T10:17:17.999Z</time></trkpt><trkpt lat="43.36678107095664" lon="10.827547183002956"><ele>124.0</ele><time>2026-04-18T10:17:25Z</time></trkpt><trkpt lat="43.36679300289802" lon="10.827445271111587"><ele>124.00000000000001</ele><time>2026-04-18T10:17:32Z</time></trkpt><trkpt lat="43.366817382702116" lon="10.82736385088912"><ele>124.0</ele><time>2026-04-18T10:17:39Z</time></trkpt><trkpt lat="43.36683134570123" lon="10.827276462181304"><ele>124.0</ele><time>2026-04-18T10:17:51Z</time></trkpt><trkpt lat="43.366827826457374" lon="10.827188003159755"><ele>124.0</ele><time>2026-04-18T10:17:58Z</time></trkpt><trkpt lat="43.36678050784464" lon="10.827111126514485"><ele>124.00000000000001</ele><time>2026-04-18T10:18:05Z</time></trkpt><trkpt lat="43.3667279225963" lon="10.827057077126014"><ele>124.0</ele><time>2026-04-18T10:18:12Z</time></trkpt><trkpt lat="43.366663465576515" lon="10.82703609505529"><ele>124.0</ele><time>2026-04-18T10:18:20Z</time></trkpt><trkpt lat="43.36659290911057" lon="10.827050888732895"><ele>124.00000000000001</ele><time>2026-04-18T10:18:28Z</time></trkpt><trkpt lat="43.36652830859389" lon="10.827049526819032"><ele>124.0</ele><time>2026-04-18T10:18:35Z</time></trkpt><trkpt lat="43.366472798694396" lon="10.827006681754199"><ele>124.0</ele><time>2026-04-18T10:18:41.999Z</time></trkpt><trkpt lat="43.366437542241016" lon="10.826923596573828"><ele>124.0</ele><time>2026-04-18T10:18:48.999Z</time></trkpt><trkpt lat="43.36639776834585" lon="10.826840494700331"><ele>124.00000000000001</ele><time>2026-04-18T10:18:55.999Z</time></trkpt><trkpt lat="43.36636673791378" lon="10.826749438782144"><ele>124.0</ele><time>2026-04-18T10:19:02.999Z</time></trkpt><trkpt lat="43.36634928445569" lon="10.826660608761662"><ele>124.0</ele><time>2026-04-18T10:19:08.999Z</time></trkpt><trkpt lat="43.36633954025317" lon="10.826568434627273"><ele>124.00000000000001</ele><time>2026-04-18T10:19:14.999Z</time></trkpt><trkpt lat="43.36633662662757" lon="10.826477647707822"><ele>124.0</ele><time>2026-04-18T10:19:21.999Z</time></trkpt><trkpt lat="43.36632575665992" lon="10.826386999044631"><ele>124.0</ele><time>2026-04-18T10:19:30Z</time></trkpt><trkpt lat="43.36631012005148" lon="10.82630062361733"><ele>124.28571428571429</ele><time>2026-04-18T10:19:37Z</time></trkpt><trkpt lat="43.366289481583074" lon="10.826204555329314"><ele>124.57142857142858</ele><time>2026-04-18T10:19:45Z</time></trkpt><trkpt lat="43.36625685025033" lon="10.826126833087354"><ele>124.85714285714286</ele><time>2026-04-18T10:19:53Z</time></trkpt><trkpt lat="43.3662236953337" lon="10.826051227918994"><ele>125.14285714285714</ele><time>2026-04-18T10:19:59Z</time></trkpt><trkpt lat="43.36618788388911" lon="10.825975629486603"><ele>125.42857142857143</ele><time>2026-04-18T10:20:05Z</time></trkpt><trkpt lat="43.366149256097955" lon="10.825885651403862"><ele>125.71428571428572</ele><time>2026-04-18T10:20:12Z</time></trkpt><trkpt lat="43.366100173210256" lon="10.825819454814212"><ele>126.0</ele><time>2026-04-18T10:20:18Z</time></trkpt><trkpt lat="43.36606365508352" lon="10.825747498825171"><ele>126.0</ele><time>2026-04-18T10:20:24Z</time></trkpt><trkpt lat="43.36602477839451" lon="10.825669739145031"><ele>126.0</ele><time>2026-04-18T10:20:30Z</time></trkpt><trkpt lat="43.36597992066147" lon="10.825599378011889"><ele>126.0</ele><time>2026-04-18T10:20:37Z</time></trkpt><trkpt lat="43.36591787189119" lon="10.825633851085922"><ele>126.0</ele><time>2026-04-18T10:20:54.999Z</time></trkpt><trkpt lat="43.36591070217945" lon="10.825723046629987"><ele>126.0</ele><time>2026-04-18T10:21:03.999Z</time></trkpt><trkpt lat="43.36593092954659" lon="10.825806352230202"><ele>126.0</ele><time>2026-04-18T10:21:12.999Z</time></trkpt><trkpt lat="43.36595932057806" lon="10.825885756622785"><ele>126.0</ele><time>2026-04-18T10:21:20.999Z</time></trkpt><trkpt lat="43.36599821447887" lon="10.825967011020683"><ele>125.28571428571428</ele><time>2026-04-18T10:21:28.999Z</time></trkpt><trkpt lat="43.36603675486187" lon="10.826039669818476"><ele>124.57142857142857</ele><time>2026-04-18T10:21:35Z</time></trkpt><trkpt lat="43.36607500765474" lon="10.826116591592676"><ele>123.85714285714286</ele><time>2026-04-18T10:21:41Z</time></trkpt><trkpt lat="43.36610978092653" lon="10.826208731935852"><ele>123.14285714285714</ele><time>2026-04-18T10:21:48Z</time></trkpt><trkpt lat="43.36611550805471" lon="10.826307113223965"><ele>122.42857142857142</ele><time>2026-04-18T10:21:55Z</time></trkpt><trkpt lat="43.36607783097636" lon="10.826376924857147"><ele>121.71428571428571</ele><time>2026-04-18T10:22:02Z</time></trkpt><trkpt lat="43.3660086376273" lon="10.826365609127004"><ele>121.0</ele><time>2026-04-18T10:22:12Z</time></trkpt><trkpt lat="43.365960198670116" lon="10.826294824746345"><ele>121.0</ele><time>2026-04-18T10:22:20Z</time></trkpt><trkpt lat="43.36592091024013" lon="10.826218410633508"><ele>120.99999999999999</ele><time>2026-04-18T10:22:27Z</time></trkpt><trkpt lat="43.3658760356877" lon="10.826148636892357"><ele>121.0</ele><time>2026-04-18T10:22:33Z</time></trkpt><trkpt lat="43.36584696667833" lon="10.826068562663341"><ele>121.0</ele><time>2026-04-18T10:22:38Z</time></trkpt><trkpt lat="43.36581848151334" lon="10.825980374453295"><ele>120.99999999999999</ele><time>2026-04-18T10:22:44Z</time></trkpt><trkpt lat="43.36580558457158" lon="10.825876752320692"><ele>121.0</ele><time>2026-04-18T10:22:49.999Z</time></trkpt><trkpt lat="43.365813486365035" lon="10.825790285996542"><ele>121.0</ele><time>2026-04-18T10:22:55.999Z</time></trkpt><trkpt lat="43.36583507004201" lon="10.825701163191745"><ele>121.71428571428571</ele><time>2026-04-18T10:23:01.999Z</time></trkpt><trkpt lat="43.365856265764876" lon="10.825614933254135"><ele>122.42857142857142</ele><time>2026-04-18T10:23:08.999Z</time></trkpt><trkpt lat="43.36587719513977" lon="10.82553146193912"><ele>123.14285714285714</ele><time>2026-04-18T10:23:15.999Z</time></trkpt><trkpt lat="43.36592443565016" lon="10.825443582622247"><ele>123.85714285714286</ele><time>2026-04-18T10:23:23.999Z</time></trkpt><trkpt lat="43.365935916868445" lon="10.825344710042591"><ele>124.57142857142857</ele><time>2026-04-18T10:23:32.999Z</time></trkpt><trkpt lat="43.36592193338992" lon="10.825258610422665"><ele>125.28571428571428</ele><time>2026-04-18T10:23:41Z</time></trkpt><trkpt lat="43.36589538999438" lon="10.825178755663407"><ele>126.0</ele><time>2026-04-18T10:23:48Z</time></trkpt><trkpt lat="43.36587429203335" lon="10.825095943870515"><ele>126.14285714285714</ele><time>2026-04-18T10:23:54Z</time></trkpt><trkpt lat="43.365856793559644" lon="10.825005181688205"><ele>126.28571428571428</ele><time>2026-04-18T10:24:00Z</time></trkpt><trkpt lat="43.36583713996977" lon="10.824916272592914"><ele>126.42857142857143</ele><time>2026-04-18T10:24:06Z</time></trkpt><trkpt lat="43.365806814196205" lon="10.82482302191644"><ele>126.57142857142857</ele><time>2026-04-18T10:24:15Z</time></trkpt><trkpt lat="43.36578174867395" lon="10.8247341827419"><ele>126.71428571428571</ele><time>2026-04-18T10:24:22Z</time></trkpt><trkpt lat="43.3657528690423" lon="10.824646224429117"><ele>126.85714285714286</ele><time>2026-04-18T10:24:29Z</time></trkpt><trkpt lat="43.36574476409855" lon="10.824549146258835"><ele>127.0</ele><time>2026-04-18T10:24:35Z</time></trkpt><trkpt lat="43.3657035482124" lon="10.824483058580256"><ele>127.0</ele><time>2026-04-18T10:24:42Z</time></trkpt><trkpt lat="43.36565949411088" lon="10.824545464953198"><ele>127.0</ele><time>2026-04-18T10:24:52Z</time></trkpt><trkpt lat="43.36568365269392" lon="10.824638031684547"><ele>127.0</ele><time>2026-04-18T10:24:58.999Z</time></trkpt><trkpt lat="43.36570937458917" lon="10.824718318740713"><ele>127.0</ele><time>2026-04-18T10:25:05.999Z</time></trkpt><trkpt lat="43.365719966648484" lon="10.8248139542247"><ele>127.0</ele><time>2026-04-18T10:25:12.999Z</time></trkpt><trkpt lat="43.365747440727375" lon="10.824897789976065"><ele>127.0</ele><time>2026-04-18T10:25:21.999Z</time></trkpt><trkpt lat="43.365764708400164" lon="10.824995488328309"><ele>127.0</ele><time>2026-04-18T10:25:28.999Z</time></trkpt><trkpt lat="43.36577776177954" lon="10.825096034763284"><ele>126.85714285714286</ele><time>2026-04-18T10:25:35.999Z</time></trkpt><trkpt lat="43.36578921817717" lon="10.825186084414382"><ele>126.71428571428571</ele><time>2026-04-18T10:25:43.999Z</time></trkpt><trkpt lat="43.36575327093139" lon="10.825262824311071"><ele>126.57142857142857</ele><time>2026-04-18T10:25:51Z</time></trkpt><trkpt lat="43.36571279571471" lon="10.825344293946292"><ele>126.42857142857143</ele><time>2026-04-18T10:26:00Z</time></trkpt><trkpt lat="43.36564196254112" lon="10.825369538505285"><ele>126.28571428571428</ele><time>2026-04-18T10:26:23Z</time></trkpt><trkpt lat="43.36558194296231" lon="10.82540021954198"><ele>126.14285714285714</ele><time>2026-04-18T10:26:30Z</time></trkpt><trkpt lat="43.36552066504468" lon="10.825369652499136"><ele>126.0</ele><time>2026-04-18T10:26:41Z</time></trkpt><trkpt lat="43.36548644006473" lon="10.825296537521057"><ele>126.14285714285714</ele><time>2026-04-18T10:27:05.999Z</time></trkpt><trkpt lat="43.365494961742115" lon="10.825210042945475"><ele>126.28571428571428</ele><time>2026-04-18T10:27:11.999Z</time></trkpt><trkpt lat="43.36552925889802" lon="10.82512304312252"><ele>126.42857142857143</ele><time>2026-04-18T10:27:17.999Z</time></trkpt><trkpt lat="43.365551027475476" lon="10.825024100856051"><ele>126.57142857142857</ele><time>2026-04-18T10:27:24.999Z</time></trkpt><trkpt lat="43.36556691567682" lon="10.824915956409324"><ele>126.71428571428571</ele><time>2026-04-18T10:27:31.999Z</time></trkpt><trkpt lat="43.36556364883101" lon="10.824810008804823"><ele>126.85714285714286</ele><time>2026-04-18T10:27:38.999Z</time></trkpt><trkpt lat="43.36555553361798" lon="10.824718853521764"><ele>127.0</ele><time>2026-04-18T10:27:44.999Z</time></trkpt><trkpt lat="43.36555402011235" lon="10.824622920646721"><ele>127.0</ele><time>2026-04-18T10:27:50.999Z</time></trkpt><trkpt lat="43.365555328640916" lon="10.824529248585975"><ele>127.0</ele><time>2026-04-18T10:27:57Z</time></trkpt><trkpt lat="43.36554895509858" lon="10.82442867690537"><ele>127.0</ele><time>2026-04-18T10:28:04Z</time></trkpt><trkpt lat="43.365563786566014" lon="10.824334049317732"><ele>127.0</ele><time>2026-04-18T10:28:10Z</time></trkpt><trkpt lat="43.36557200526076" lon="10.824238869578028"><ele>127.0</ele><time>2026-04-18T10:28:16Z</time></trkpt><trkpt lat="43.365542846629204" lon="10.824135316849441"><ele>127.0</ele><time>2026-04-18T10:28:52Z</time></trkpt><trkpt lat="43.3655085365038" lon="10.824043613081347"><ele>127.0</ele><time>2026-04-18T10:29:17.999Z</time></trkpt><trkpt lat="43.36544806531444" lon="10.824011534877892"><ele>125.0</ele><time>2026-04-18T10:29:23.999Z</time></trkpt><trkpt lat="43.36540583927893" lon="10.823939087190162"><ele>123.0</ele><time>2026-04-18T10:29:29.999Z</time></trkpt><trkpt lat="43.36536070508276" lon="10.82386973547619"><ele>121.0</ele><time>2026-04-18T10:29:36.999Z</time></trkpt><trkpt lat="43.36531683124661" lon="10.82379643272117"><ele>119.0</ele><time>2026-04-18T10:29:42.999Z</time></trkpt><trkpt lat="43.36527560873925" lon="10.82372864392283"><ele>117.0</ele><time>2026-04-18T10:29:47.999Z</time></trkpt><trkpt lat="43.365241080919205" lon="10.8236481185336"><ele>115.0</ele><time>2026-04-18T10:29:54.999Z</time></trkpt><trkpt lat="43.36520284250882" lon="10.823574717701657"><ele>113.0</ele><time>2026-04-18T10:30:00Z</time></trkpt><trkpt lat="43.36517819824781" lon="10.82349055211076"><ele>113.85714285714286</ele><time>2026-04-18T10:30:06Z</time></trkpt><trkpt lat="43.36515213467912" lon="10.82340530479789"><ele>114.71428571428571</ele><time>2026-04-18T10:30:16Z</time></trkpt><trkpt lat="43.36512941445447" lon="10.823315675159863"><ele>115.57142857142857</ele><time>2026-04-18T10:30:24Z</time></trkpt><trkpt lat="43.36509548198917" lon="10.823229044818568"><ele>116.42857142857143</ele><time>2026-04-18T10:30:34Z</time></trkpt><trkpt lat="43.36507153948779" lon="10.823136108341371"><ele>117.28571428571428</ele><time>2026-04-18T10:30:41Z</time></trkpt><trkpt lat="43.365046256444224" lon="10.823042578983316"><ele>118.14285714285714</ele><time>2026-04-18T10:30:47Z</time></trkpt><trkpt lat="43.3650190612677" lon="10.82295882518296"><ele>119.0</ele><time>2026-04-18T10:30:52Z</time></trkpt><trkpt lat="43.36498611778499" lon="10.822879412940367"><ele>119.0</ele><time>2026-04-18T10:30:58Z</time></trkpt><trkpt lat="43.3649633090246" lon="10.822791173917013"><ele>119.0</ele><time>2026-04-18T10:31:04Z</time></trkpt><trkpt lat="43.36492079671065" lon="10.822705433435011"><ele>119.0</ele><time>2026-04-18T10:31:10Z</time></trkpt><trkpt lat="43.36487933643156" lon="10.82263093719512"><ele>119.0</ele><time>2026-04-18T10:31:15.999Z</time></trkpt><trkpt lat="43.36483139186365" lon="10.822562652333072"><ele>119.0</ele><time>2026-04-18T10:31:21.999Z</time></trkpt><trkpt lat="43.364759383463806" lon="10.822578989126733"><ele>119.0</ele><time>2026-04-18T10:31:32.999Z</time></trkpt><trkpt lat="43.36470454919131" lon="10.822624588566127"><ele>119.0</ele><time>2026-04-18T10:31:40.999Z</time></trkpt><trkpt lat="43.364651484811006" lon="10.822693004078"><ele>118.57142857142857</ele><time>2026-04-18T10:31:50.999Z</time></trkpt><trkpt lat="43.36460317926039" lon="10.82275723888595"><ele>118.14285714285714</ele><time>2026-04-18T10:31:58.999Z</time></trkpt><trkpt lat="43.364530501007216" lon="10.82278229618398"><ele>117.71428571428572</ele><time>2026-04-18T10:32:06Z</time></trkpt><trkpt lat="43.36448298094819" lon="10.822702930674732"><ele>117.28571428571429</ele><time>2026-04-18T10:32:15Z</time></trkpt><trkpt lat="43.36449567153762" lon="10.822617366766758"><ele>116.85714285714286</ele><time>2026-04-18T10:32:25Z</time></trkpt><trkpt lat="43.364527495750885" lon="10.822531317448506"><ele>116.42857142857144</ele><time>2026-04-18T10:32:40Z</time></trkpt><trkpt lat="43.364560463087734" lon="10.82245149750135"><ele>116.00000000000001</ele><time>2026-04-18T10:33:11.999Z</time></trkpt><trkpt lat="43.36459269208213" lon="10.822364449255234"><ele>116.00000000000001</ele><time>2026-04-18T10:33:23.999Z</time></trkpt><trkpt lat="43.364586352891216" lon="10.822276764923979"><ele>116.0</ele><time>2026-04-18T10:33:36.999Z</time></trkpt><trkpt lat="43.364536582952006" lon="10.82220783708044"><ele>116.00000000000001</ele><time>2026-04-18T10:33:44.999Z</time></trkpt><trkpt lat="43.36448207498152" lon="10.822163100489037"><ele>116.00000000000001</ele><time>2026-04-18T10:33:52.999Z</time></trkpt><trkpt lat="43.36443492021665" lon="10.822105275259972"><ele>116.0</ele><time>2026-04-18T10:33:58.999Z</time></trkpt><trkpt lat="43.36437854160818" lon="10.82205198163754"><ele>116.00000000000001</ele><time>2026-04-18T10:34:06.999Z</time></trkpt><trkpt lat="43.364317826133316" lon="10.822016400010309"><ele>116.00000000000001</ele><time>2026-04-18T10:34:16Z</time></trkpt><trkpt lat="43.364250110572776" lon="10.822005794925612"><ele>116.0</ele><time>2026-04-18T10:34:23Z</time></trkpt><trkpt lat="43.36417828469404" lon="10.8219842505095"><ele>116.0</ele><time>2026-04-18T10:34:30Z</time></trkpt></trkseg></trk></gpx>